sensor_id;sensor_type;location;lat;lon;timestamp;temperature;humidity
20560;DHT22;10438;51.454;6.718;2023-07-13T00:01:29;16.90;99.90
20560;DHT22;10438;51.454;6.718;2023-07-13T00:03:56;16.90;99.90
20560;DHT22;10438;51.454;6.718;2023-07-13T00:06:21;16.90;99.90
20560;DHT22;10438;51.454;6.718;2023-07-13T00:08:47;16.90;99.90
20560;DHT22;10438;51.454;6.718;2023-07-13T00:11:14;16.90;99.90
20560;DHT22;10438;51.454;6.718;2023-07-13T00:13:40;16.90;99.90
20560;DHT22;10438;51.454;6.718;2023-07-13T00:16:06;16.80;99.90
20560;DHT22;10438;51.454;6.718;2023-07-13T00:18:32;16.80;99.90
20560;DHT22;10438;51.454;6.718;2023-07-13T00:20:58;16.70;99.90
20560;DHT22;10438;51.454;6.718;2023-07-13T00:23:35;16.70;99.90
20560;DHT22;10438;51.454;6.718;2023-07-13T00:26:02;16.70;99.90
20560;DHT22;10438;51.454;6.718;2023-07-13T00:28:28;16.60;99.90
20560;DHT22;10438;51.454;6.718;2023-07-13T00:30:53;16.60;99.90
20560;DHT22;10438;51.454;6.718;2023-07-13T00:33:19;16.60;99.90
20560;DHT22;10438;51.454;6.718;2023-07-13T00:35:45;16.50;99.90
20560;DHT22;10438;51.454;6.718;2023-07-13T00:38:10;16.50;99.90
20560;DHT22;10438;51.454;6.718;2023-07-13T00:40:36;16.50;99.90
20560;DHT22;10438;51.454;6.718;2023-07-13T00:43:02;16.50;99.90
20560;DHT22;10438;51.454;6.718;2023-07-13T00:47:54;16.40;99.90
20560;DHT22;10438;51.454;6.718;2023-07-13T00:50:21;16.40;99.90
20560;DHT22;10438;51.454;6.718;2023-07-13T00:52:50;16.30;99.90
20560;DHT22;10438;51.454;6.718;2023-07-13T00:55:18;16.30;99.90
20560;DHT22;10438;51.454;6.718;2023-07-13T00:57:45;16.30;99.90
20560;DHT22;10438;51.454;6.718;2023-07-13T01:00:12;16.30;99.90
20560;DHT22;10438;51.454;6.718;2023-07-13T01:02:39;16.30;99.90
20560;DHT22;10438;51.454;6.718;2023-07-13T01:05:16;16.30;99.90
20560;DHT22;10438;51.454;6.718;2023-07-13T01:07:44;16.30;99.90
20560;DHT22;10438;51.454;6.718;2023-07-13T01:10:11;16.30;99.90
20560;DHT22;10438;51.454;6.718;2023-07-13T01:12:37;16.30;99.90
20560;DHT22;10438;51.454;6.718;2023-07-13T01:15:03;16.30;99.90
20560;DHT22;10438;51.454;6.718;2023-07-13T01:17:30;16.30;99.90
20560;DHT22;10438;51.454;6.718;2023-07-13T01:19:56;16.30;99.90
20560;DHT22;10438;51.454;6.718;2023-07-13T01:22:22;16.40;99.90
20560;DHT22;10438;51.454;6.718;2023-07-13T01:24:53;16.40;99.90
20560;DHT22;10438;51.454;6.718;2023-07-13T01:27:22;16.30;99.90
20560;DHT22;10438;51.454;6.718;2023-07-13T01:29:48;16.30;99.90
20560;DHT22;10438;51.454;6.718;2023-07-13T01:32:18;16.30;99.90
20560;DHT22;10438;51.454;6.718;2023-07-13T01:34:48;16.20;99.90
20560;DHT22;10438;51.454;6.718;2023-07-13T01:37:13;16.10;99.90
20560;DHT22;10438;51.454;6.718;2023-07-13T01:39:39;16.10;99.90
20560;DHT22;10438;51.454;6.718;2023-07-13T01:42:05;16.00;99.90
20560;DHT22;10438;51.454;6.718;2023-07-13T01:44:30;16.00;99.90
20560;DHT22;10438;51.454;6.718;2023-07-13T01:46:56;16.00;99.90
20560;DHT22;10438;51.454;6.718;2023-07-13T01:49:21;16.00;99.90
20560;DHT22;10438;51.454;6.718;2023-07-13T01:51:47;16.00;99.90
20560;DHT22;10438;51.454;6.718;2023-07-13T01:54:12;15.90;99.90
20560;DHT22;10438;51.454;6.718;2023-07-13T01:56:38;16.00;99.90
20560;DHT22;10438;51.454;6.718;2023-07-13T01:59:05;16.00;99.90
20560;DHT22;10438;51.454;6.718;2023-07-13T02:01:30;16.00;99.90
20560;DHT22;10438;51.454;6.718;2023-07-13T02:03:56;15.90;99.90
20560;DHT22;10438;51.454;6.718;2023-07-13T02:06:21;15.90;99.90
20560;DHT22;10438;51.454;6.718;2023-07-13T02:08:47;15.90;99.90
20560;DHT22;10438;51.454;6.718;2023-07-13T02:11:12;15.80;99.90
20560;DHT22;10438;51.454;6.718;2023-07-13T02:13:38;15.90;99.90
20560;DHT22;10438;51.454;6.718;2023-07-13T02:16:04;15.80;99.90
20560;DHT22;10438;51.454;6.718;2023-07-13T02:18:29;15.80;99.90
20560;DHT22;10438;51.454;6.718;2023-07-13T02:20:55;15.80;99.90
20560;DHT22;10438;51.454;6.718;2023-07-13T02:23:20;15.80;99.90
20560;DHT22;10438;51.454;6.718;2023-07-13T02:25:46;15.70;99.90
20560;DHT22;10438;51.454;6.718;2023-07-13T02:28:11;15.70;99.90
20560;DHT22;10438;51.454;6.718;2023-07-13T02:30:37;15.70;99.90
20560;DHT22;10438;51.454;6.718;2023-07-13T02:33:04;15.70;99.90
20560;DHT22;10438;51.454;6.718;2023-07-13T02:35:29;15.70;99.90
20560;DHT22;10438;51.454;6.718;2023-07-13T02:37:55;15.70;99.90
20560;DHT22;10438;51.454;6.718;2023-07-13T02:40:20;15.80;99.90
20560;DHT22;10438;51.454;6.718;2023-07-13T02:42:46;15.70;99.90
20560;DHT22;10438;51.454;6.718;2023-07-13T02:45:11;15.70;99.90
20560;DHT22;10438;51.454;6.718;2023-07-13T02:47:40;15.70;99.90
20560;DHT22;10438;51.454;6.718;2023-07-13T02:50:06;15.60;99.90
20560;DHT22;10438;51.454;6.718;2023-07-13T02:52:32;15.50;99.90
20560;DHT22;10438;51.454;6.718;2023-07-13T02:54:57;15.50;99.90
20560;DHT22;10438;51.454;6.718;2023-07-13T02:57:23;15.50;99.90
20560;DHT22;10438;51.454;6.718;2023-07-13T02:59:49;15.40;99.90
20560;DHT22;10438;51.454;6.718;2023-07-13T03:02:15;15.40;99.90
20560;DHT22;10438;51.454;6.718;2023-07-13T03:04:40;15.40;99.90
20560;DHT22;10438;51.454;6.718;2023-07-13T03:07:06;15.40;99.90
20560;DHT22;10438;51.454;6.718;2023-07-13T03:09:33;15.40;99.90
20560;DHT22;10438;51.454;6.718;2023-07-13T03:11:59;15.40;99.90
20560;DHT22;10438;51.454;6.718;2023-07-13T03:14:25;15.40;99.90
20560;DHT22;10438;51.454;6.718;2023-07-13T03:16:51;15.40;99.90
20560;DHT22;10438;51.454;6.718;2023-07-13T03:19:17;15.40;99.90
20560;DHT22;10438;51.454;6.718;2023-07-13T03:21:43;15.40;99.90
20560;DHT22;10438;51.454;6.718;2023-07-13T03:24:08;15.40;99.90
20560;DHT22;10438;51.454;6.718;2023-07-13T03:26:34;15.40;99.90
20560;DHT22;10438;51.454;6.718;2023-07-13T03:29:00;15.40;99.90
20560;DHT22;10438;51.454;6.718;2023-07-13T03:31:28;15.40;99.90
20560;DHT22;10438;51.454;6.718;2023-07-13T03:33:55;15.40;99.90
20560;DHT22;10438;51.454;6.718;2023-07-13T03:36:23;15.40;99.90
20560;DHT22;10438;51.454;6.718;2023-07-13T03:38:51;15.40;99.90
20560;DHT22;10438;51.454;6.718;2023-07-13T03:41:17;15.30;99.90
20560;DHT22;10438;51.454;6.718;2023-07-13T03:43:43;15.30;99.90
20560;DHT22;10438;51.454;6.718;2023-07-13T03:46:09;15.30;99.90
20560;DHT22;10438;51.454;6.718;2023-07-13T03:48:35;15.30;99.90
20560;DHT22;10438;51.454;6.718;2023-07-13T03:51:01;15.20;99.90
20560;DHT22;10438;51.454;6.718;2023-07-13T03:53:26;15.30;99.90
20560;DHT22;10438;51.454;6.718;2023-07-13T03:55:52;15.20;99.90
20560;DHT22;10438;51.454;6.718;2023-07-13T03:58:33;15.20;99.90
20560;DHT22;10438;51.454;6.718;2023-07-13T04:00:59;15.20;99.90
20560;DHT22;10438;51.454;6.718;2023-07-13T04:03:26;15.30;99.90
20560;DHT22;10438;51.454;6.718;2023-07-13T04:05:56;15.30;99.90
20560;DHT22;10438;51.454;6.718;2023-07-13T04:08:34;15.20;99.90
20560;DHT22;10438;51.454;6.718;2023-07-13T04:11:00;15.20;99.90
20560;DHT22;10438;51.454;6.718;2023-07-13T04:13:26;15.20;99.90
20560;DHT22;10438;51.454;6.718;2023-07-13T04:15:52;15.20;99.90
20560;DHT22;10438;51.454;6.718;2023-07-13T04:18:18;15.20;99.90
20560;DHT22;10438;51.454;6.718;2023-07-13T04:20:45;15.20;99.90
20560;DHT22;10438;51.454;6.718;2023-07-13T04:23:11;15.20;99.90
20560;DHT22;10438;51.454;6.718;2023-07-13T04:25:36;15.20;99.90
20560;DHT22;10438;51.454;6.718;2023-07-13T04:28:03;15.30;99.90
20560;DHT22;10438;51.454;6.718;2023-07-13T04:30:29;15.30;99.90
20560;DHT22;10438;51.454;6.718;2023-07-13T04:32:55;15.30;99.90
20560;DHT22;10438;51.454;6.718;2023-07-13T04:35:21;15.30;99.90
20560;DHT22;10438;51.454;6.718;2023-07-13T04:37:49;15.30;99.90
20560;DHT22;10438;51.454;6.718;2023-07-13T04:40:16;15.30;99.90
20560;DHT22;10438;51.454;6.718;2023-07-13T04:42:42;15.30;99.90
20560;DHT22;10438;51.454;6.718;2023-07-13T04:45:08;15.30;99.90
20560;DHT22;10438;51.454;6.718;2023-07-13T04:47:33;15.30;99.90
20560;DHT22;10438;51.454;6.718;2023-07-13T04:49:59;15.30;99.90
20560;DHT22;10438;51.454;6.718;2023-07-13T04:52:24;15.20;99.90
20560;DHT22;10438;51.454;6.718;2023-07-13T04:54:50;15.30;99.90
20560;DHT22;10438;51.454;6.718;2023-07-13T04:57:16;15.30;99.90
20560;DHT22;10438;51.454;6.718;2023-07-13T04:59:41;15.40;99.90
20560;DHT22;10438;51.454;6.718;2023-07-13T05:02:07;15.40;99.90
20560;DHT22;10438;51.454;6.718;2023-07-13T05:04:32;15.40;99.90
20560;DHT22;10438;51.454;6.718;2023-07-13T05:06:59;15.40;99.90
20560;DHT22;10438;51.454;6.718;2023-07-13T05:09:24;15.40;99.90
20560;DHT22;10438;51.454;6.718;2023-07-13T05:11:50;15.50;99.90
20560;DHT22;10438;51.454;6.718;2023-07-13T05:14:15;15.50;99.90
20560;DHT22;10438;51.454;6.718;2023-07-13T05:16:41;15.50;99.90
20560;DHT22;10438;51.454;6.718;2023-07-13T05:19:08;15.60;99.90
20560;DHT22;10438;51.454;6.718;2023-07-13T05:21:33;15.60;99.90
20560;DHT22;10438;51.454;6.718;2023-07-13T05:23:59;15.60;99.90
20560;DHT22;10438;51.454;6.718;2023-07-13T05:26:24;15.60;99.90
20560;DHT22;10438;51.454;6.718;2023-07-13T05:28:50;15.60;99.90
20560;DHT22;10438;51.454;6.718;2023-07-13T05:31:15;15.70;99.90
20560;DHT22;10438;51.454;6.718;2023-07-13T05:33:41;15.80;99.90
20560;DHT22;10438;51.454;6.718;2023-07-13T05:36:07;15.80;99.90
20560;DHT22;10438;51.454;6.718;2023-07-13T05:38:33;15.80;99.90
20560;DHT22;10438;51.454;6.718;2023-07-13T05:40:58;15.90;99.90
20560;DHT22;10438;51.454;6.718;2023-07-13T05:43:24;15.90;99.90
20560;DHT22;10438;51.454;6.718;2023-07-13T05:45:53;15.90;99.90
20560;DHT22;10438;51.454;6.718;2023-07-13T05:48:19;15.90;99.90
20560;DHT22;10438;51.454;6.718;2023-07-13T05:50:44;15.90;99.90
20560;DHT22;10438;51.454;6.718;2023-07-13T05:53:11;16.00;99.90
20560;DHT22;10438;51.454;6.718;2023-07-13T05:55:44;16.00;99.90
20560;DHT22;10438;51.454;6.718;2023-07-13T05:58:12;16.10;99.90
20560;DHT22;10438;51.454;6.718;2023-07-13T06:00:38;16.10;99.90
20560;DHT22;10438;51.454;6.718;2023-07-13T06:03:04;16.20;99.90
20560;DHT22;10438;51.454;6.718;2023-07-13T06:05:29;16.20;99.90
20560;DHT22;10438;51.454;6.718;2023-07-13T06:07:55;16.30;99.90
20560;DHT22;10438;51.454;6.718;2023-07-13T06:10:21;16.30;99.90
20560;DHT22;10438;51.454;6.718;2023-07-13T06:12:46;16.30;99.90
20560;DHT22;10438;51.454;6.718;2023-07-13T06:15:13;16.30;99.90
20560;DHT22;10438;51.454;6.718;2023-07-13T06:17:39;16.40;99.90
20560;DHT22;10438;51.454;6.718;2023-07-13T06:20:05;16.40;99.90
20560;DHT22;10438;51.454;6.718;2023-07-13T06:22:30;16.50;99.90
20560;DHT22;10438;51.454;6.718;2023-07-13T06:24:56;16.60;99.90
20560;DHT22;10438;51.454;6.718;2023-07-13T06:27:21;16.60;99.90
20560;DHT22;10438;51.454;6.718;2023-07-13T06:29:47;16.60;99.90
20560;DHT22;10438;51.454;6.718;2023-07-13T06:32:12;16.60;99.90
20560;DHT22;10438;51.454;6.718;2023-07-13T06:34:38;16.70;99.90
20560;DHT22;10438;51.454;6.718;2023-07-13T06:37:03;16.80;99.90
20560;DHT22;10438;51.454;6.718;2023-07-13T06:39:29;16.90;99.90
20560;DHT22;10438;51.454;6.718;2023-07-13T06:41:54;17.20;99.90
20560;DHT22;10438;51.454;6.718;2023-07-13T06:44:20;17.40;99.90
20560;DHT22;10438;51.454;6.718;2023-07-13T06:46:45;17.60;99.90
20560;DHT22;10438;51.454;6.718;2023-07-13T06:49:11;17.70;99.90
20560;DHT22;10438;51.454;6.718;2023-07-13T06:51:36;17.80;99.90
20560;DHT22;10438;51.454;6.718;2023-07-13T06:54:03;17.80;99.90
20560;DHT22;10438;51.454;6.718;2023-07-13T06:56:28;17.80;99.90
20560;DHT22;10438;51.454;6.718;2023-07-13T06:58:54;17.70;99.90
20560;DHT22;10438;51.454;6.718;2023-07-13T07:01:19;17.50;99.90
20560;DHT22;10438;51.454;6.718;2023-07-13T07:03:45;17.40;99.90
20560;DHT22;10438;51.454;6.718;2023-07-13T07:06:19;17.30;99.90
20560;DHT22;10438;51.454;6.718;2023-07-13T07:08:45;17.40;99.90
20560;DHT22;10438;51.454;6.718;2023-07-13T07:11:16;17.40;99.90
20560;DHT22;10438;51.454;6.718;2023-07-13T07:13:42;17.50;99.90
20560;DHT22;10438;51.454;6.718;2023-07-13T07:16:07;17.50;99.90
20560;DHT22;10438;51.454;6.718;2023-07-13T07:18:34;17.50;99.90
20560;DHT22;10438;51.454;6.718;2023-07-13T07:20:59;17.50;99.90
20560;DHT22;10438;51.454;6.718;2023-07-13T07:23:25;17.50;99.90
20560;DHT22;10438;51.454;6.718;2023-07-13T07:25:50;17.50;99.90
20560;DHT22;10438;51.454;6.718;2023-07-13T07:28:17;17.50;99.90
20560;DHT22;10438;51.454;6.718;2023-07-13T07:30:44;17.50;99.90
20560;DHT22;10438;51.454;6.718;2023-07-13T07:33:10;17.50;99.90
20560;DHT22;10438;51.454;6.718;2023-07-13T07:35:35;17.50;99.90
20560;DHT22;10438;51.454;6.718;2023-07-13T07:38:01;17.50;99.90
20560;DHT22;10438;51.454;6.718;2023-07-13T07:40:26;17.40;99.90
20560;DHT22;10438;51.454;6.718;2023-07-13T07:42:52;17.40;99.90
20560;DHT22;10438;51.454;6.718;2023-07-13T07:45:19;17.40;99.90
20560;DHT22;10438;51.454;6.718;2023-07-13T07:47:44;17.50;99.90
20560;DHT22;10438;51.454;6.718;2023-07-13T07:50:10;17.60;99.90
20560;DHT22;10438;51.454;6.718;2023-07-13T07:52:36;17.70;99.90
20560;DHT22;10438;51.454;6.718;2023-07-13T07:55:05;17.80;99.90
20560;DHT22;10438;51.454;6.718;2023-07-13T07:57:31;17.80;99.90
20560;DHT22;10438;51.454;6.718;2023-07-13T07:59:56;17.80;99.90
20560;DHT22;10438;51.454;6.718;2023-07-13T08:02:22;17.90;99.90
20560;DHT22;10438;51.454;6.718;2023-07-13T08:04:47;17.80;99.90
20560;DHT22;10438;51.454;6.718;2023-07-13T08:07:13;17.70;99.90
20560;DHT22;10438;51.454;6.718;2023-07-13T08:09:38;17.70;99.90
20560;DHT22;10438;51.454;6.718;2023-07-13T08:12:04;17.80;99.90
20560;DHT22;10438;51.454;6.718;2023-07-13T08:14:30;17.90;99.90
20560;DHT22;10438;51.454;6.718;2023-07-13T08:16:55;18.10;99.90
20560;DHT22;10438;51.454;6.718;2023-07-13T08:19:21;18.30;99.90
20560;DHT22;10438;51.454;6.718;2023-07-13T08:21:46;18.40;99.90
20560;DHT22;10438;51.454;6.718;2023-07-13T08:24:14;18.60;99.90
20560;DHT22;10438;51.454;6.718;2023-07-13T08:26:39;18.70;99.90
20560;DHT22;10438;51.454;6.718;2023-07-13T08:29:05;18.90;99.90
20560;DHT22;10438;51.454;6.718;2023-07-13T08:31:30;19.10;99.90
20560;DHT22;10438;51.454;6.718;2023-07-13T08:33:56;19.20;99.90
20560;DHT22;10438;51.454;6.718;2023-07-13T08:36:21;19.20;99.90
20560;DHT22;10438;51.454;6.718;2023-07-13T08:38:47;19.30;99.90
20560;DHT22;10438;51.454;6.718;2023-07-13T08:41:16;19.30;99.90
20560;DHT22;10438;51.454;6.718;2023-07-13T08:43:49;19.20;99.90
20560;DHT22;10438;51.454;6.718;2023-07-13T08:46:23;19.10;99.90
20560;DHT22;10438;51.454;6.718;2023-07-13T08:49:00;19.20;99.90
20560;DHT22;10438;51.454;6.718;2023-07-13T08:54:04;19.40;99.90
20560;DHT22;10438;51.454;6.718;2023-07-13T08:56:31;19.50;99.90
20560;DHT22;10438;51.454;6.718;2023-07-13T08:59:04;19.50;99.90
20560;DHT22;10438;51.454;6.718;2023-07-13T09:04:35;19.40;99.90
20560;DHT22;10438;51.454;6.718;2023-07-13T09:07:24;19.40;99.90
20560;DHT22;10438;51.454;6.718;2023-07-13T09:10:09;19.50;99.90
20560;DHT22;10438;51.454;6.718;2023-07-13T09:15:28;19.40;99.90
20560;DHT22;10438;51.454;6.718;2023-07-13T09:18:11;19.50;99.90
20560;DHT22;10438;51.454;6.718;2023-07-13T09:20:45;19.60;99.90
20560;DHT22;10438;51.454;6.718;2023-07-13T09:23:15;19.70;99.90
20560;DHT22;10438;51.454;6.718;2023-07-13T09:25:47;19.60;99.90
20560;DHT22;10438;51.454;6.718;2023-07-13T09:28:19;19.60;99.90
20560;DHT22;10438;51.454;6.718;2023-07-13T09:33:40;19.80;99.90
20560;DHT22;10438;51.454;6.718;2023-07-13T09:38:43;20.20;99.90
20560;DHT22;10438;51.454;6.718;2023-07-13T09:44:15;20.30;99.90
20560;DHT22;10438;51.454;6.718;2023-07-13T09:46:52;20.00;99.90
20560;DHT22;10438;51.454;6.718;2023-07-13T09:49:22;19.70;99.90
20560;DHT22;10438;51.454;6.718;2023-07-13T09:51:58;19.50;99.90
20560;DHT22;10438;51.454;6.718;2023-07-13T09:54:25;19.60;99.90
20560;DHT22;10438;51.454;6.718;2023-07-13T09:56:55;19.80;99.90
20560;DHT22;10438;51.454;6.718;2023-07-13T09:59:23;20.00;99.90
20560;DHT22;10438;51.454;6.718;2023-07-13T10:01:50;20.00;99.90
20560;DHT22;10438;51.454;6.718;2023-07-13T10:04:19;20.30;99.90
20560;DHT22;10438;51.454;6.718;2023-07-13T10:06:46;20.50;99.90
20560;DHT22;10438;51.454;6.718;2023-07-13T10:09:16;20.50;99.90
20560;DHT22;10438;51.454;6.718;2023-07-13T10:11:42;20.50;99.90
20560;DHT22;10438;51.454;6.718;2023-07-13T10:14:20;20.70;99.90
20560;DHT22;10438;51.454;6.718;2023-07-13T10:16:47;20.60;99.90
20560;DHT22;10438;51.454;6.718;2023-07-13T10:19:21;20.60;99.90
20560;DHT22;10438;51.454;6.718;2023-07-13T10:21:56;20.50;99.90
20560;DHT22;10438;51.454;6.718;2023-07-13T10:24:27;20.60;99.90
20560;DHT22;10438;51.454;6.718;2023-07-13T10:27:18;20.90;99.90
20560;DHT22;10438;51.454;6.718;2023-07-13T10:30:13;21.10;99.90
20560;DHT22;10438;51.454;6.718;2023-07-13T10:32:37;20.90;99.90
20560;DHT22;10438;51.454;6.718;2023-07-13T10:35:03;21.00;99.90
20560;DHT22;10438;51.454;6.718;2023-07-13T10:37:39;21.30;99.90
20560;DHT22;10438;51.454;6.718;2023-07-13T10:40:12;21.40;99.90
20560;DHT22;10438;51.454;6.718;2023-07-13T10:42:43;21.60;99.90
20560;DHT22;10438;51.454;6.718;2023-07-13T10:45:34;21.40;99.90
20560;DHT22;10438;51.454;6.718;2023-07-13T10:48:00;21.60;99.90
20560;DHT22;10438;51.454;6.718;2023-07-13T10:50:28;21.90;99.90
20560;DHT22;10438;51.454;6.718;2023-07-13T10:53:02;22.00;99.90
20560;DHT22;10438;51.454;6.718;2023-07-13T10:58:20;22.00;99.90
20560;DHT22;10438;51.454;6.718;2023-07-13T11:00:49;22.00;99.90
20560;DHT22;10438;51.454;6.718;2023-07-13T11:03:19;21.90;99.90
20560;DHT22;10438;51.454;6.718;2023-07-13T11:05:49;22.00;99.90
20560;DHT22;10438;51.454;6.718;2023-07-13T11:08:19;22.10;99.90
20560;DHT22;10438;51.454;6.718;2023-07-13T11:10:50;22.40;99.90
20560;DHT22;10438;51.454;6.718;2023-07-13T11:18:45;23.20;99.90
20560;DHT22;10438;51.454;6.718;2023-07-13T11:21:21;23.00;99.50
20560;DHT22;10438;51.454;6.718;2023-07-13T11:24:01;22.70;99.90
20560;DHT22;10438;51.454;6.718;2023-07-13T11:29:34;22.70;99.90
20560;DHT22;10438;51.454;6.718;2023-07-13T11:32:25;23.10;99.60
20560;DHT22;10438;51.454;6.718;2023-07-13T11:34:55;23.40;94.10
20560;DHT22;10438;51.454;6.718;2023-07-13T11:37:21;23.50;91.80
20560;DHT22;10438;51.454;6.718;2023-07-13T11:39:50;23.60;90.00
20560;DHT22;10438;51.454;6.718;2023-07-13T11:42:18;23.40;89.50
20560;DHT22;10438;51.454;6.718;2023-07-13T11:44:47;23.30;90.60
20560;DHT22;10438;51.454;6.718;2023-07-13T11:47:21;23.30;89.80
20560;DHT22;10438;51.454;6.718;2023-07-13T11:49:53;23.60;84.70
20560;DHT22;10438;51.454;6.718;2023-07-13T11:52:35;23.70;84.10
20560;DHT22;10438;51.454;6.718;2023-07-13T11:55:04;23.50;82.40
20560;DHT22;10438;51.454;6.718;2023-07-13T11:57:42;23.30;84.50
20560;DHT22;10438;51.454;6.718;2023-07-13T12:00:16;23.80;84.80
20560;DHT22;10438;51.454;6.718;2023-07-13T12:02:46;23.60;71.40
20560;DHT22;10438;51.454;6.718;2023-07-13T12:05:15;23.60;72.90
20560;DHT22;10438;51.454;6.718;2023-07-13T12:07:41;23.60;75.80
20560;DHT22;10438;51.454;6.718;2023-07-13T12:10:26;23.70;76.30
20560;DHT22;10438;51.454;6.718;2023-07-13T12:15:21;23.80;77.70
20560;DHT22;10438;51.454;6.718;2023-07-13T12:17:47;23.50;75.90
20560;DHT22;10438;51.454;6.718;2023-07-13T12:20:23;23.20;79.70
20560;DHT22;10438;51.454;6.718;2023-07-13T12:22:50;23.40;82.00
20560;DHT22;10438;51.454;6.718;2023-07-13T12:25:16;23.30;80.20
20560;DHT22;10438;51.454;6.718;2023-07-13T12:27:47;23.00;73.30
20560;DHT22;10438;51.454;6.718;2023-07-13T12:30:28;22.70;76.40
20560;DHT22;10438;51.454;6.718;2023-07-13T12:32:58;22.50;83.00
20560;DHT22;10438;51.454;6.718;2023-07-13T12:35:26;22.30;85.20
20560;DHT22;10438;51.454;6.718;2023-07-13T12:37:57;22.10;82.90
20560;DHT22;10438;51.454;6.718;2023-07-13T12:40:28;21.90;88.80
20560;DHT22;10438;51.454;6.718;2023-07-13T12:42:56;21.80;90.90
20560;DHT22;10438;51.454;6.718;2023-07-13T12:45:23;21.80;92.70
20560;DHT22;10438;51.454;6.718;2023-07-13T12:47:54;21.70;92.60
20560;DHT22;10438;51.454;6.718;2023-07-13T12:50:24;21.60;93.50
20560;DHT22;10438;51.454;6.718;2023-07-13T12:52:59;21.60;92.70
20560;DHT22;10438;51.454;6.718;2023-07-13T12:55:28;21.60;94.90
20560;DHT22;10438;51.454;6.718;2023-07-13T12:57:58;21.60;97.60
20560;DHT22;10438;51.454;6.718;2023-07-13T13:00:31;21.50;99.90
20560;DHT22;10438;51.454;6.718;2023-07-13T13:03:03;21.30;99.90
20560;DHT22;10438;51.454;6.718;2023-07-13T13:05:30;21.30;99.30
20560;DHT22;10438;51.454;6.718;2023-07-13T13:07:57;21.60;99.80
20560;DHT22;10438;51.454;6.718;2023-07-13T13:10:23;21.70;93.50
20560;DHT22;10438;51.454;6.718;2023-07-13T13:12:50;21.90;91.70
20560;DHT22;10438;51.454;6.718;2023-07-13T13:15:16;22.20;91.20
20560;DHT22;10438;51.454;6.718;2023-07-13T13:17:42;22.60;89.20
20560;DHT22;10438;51.454;6.718;2023-07-13T13:20:19;22.90;82.20
20560;DHT22;10438;51.454;6.718;2023-07-13T13:22:44;23.20;77.90
20560;DHT22;10438;51.454;6.718;2023-07-13T13:25:11;23.40;78.20
20560;DHT22;10438;51.454;6.718;2023-07-13T13:27:42;23.50;62.20
20560;DHT22;10438;51.454;6.718;2023-07-13T13:30:13;23.90;76.70
20560;DHT22;10438;51.454;6.718;2023-07-13T13:32:43;24.10;72.30
20560;DHT22;10438;51.454;6.718;2023-07-13T13:35:17;23.90;67.70
20560;DHT22;10438;51.454;6.718;2023-07-13T13:37:44;23.80;78.50
20560;DHT22;10438;51.454;6.718;2023-07-13T13:40:18;24.10;69.90
20560;DHT22;10438;51.454;6.718;2023-07-13T13:42:44;24.00;67.70
20560;DHT22;10438;51.454;6.718;2023-07-13T13:45:10;23.80;62.80
20560;DHT22;10438;51.454;6.718;2023-07-13T13:47:38;23.70;64.10
20560;DHT22;10438;51.454;6.718;2023-07-13T13:50:21;23.70;66.10
20560;DHT22;10438;51.454;6.718;2023-07-13T13:52:49;23.60;91.90
20560;DHT22;10438;51.454;6.718;2023-07-13T13:55:20;23.50;99.70
20560;DHT22;10438;51.454;6.718;2023-07-13T13:57:47;23.50;99.90
20560;DHT22;10438;51.454;6.718;2023-07-13T14:00:14;23.60;99.90
20560;DHT22;10438;51.454;6.718;2023-07-13T14:02:41;23.70;99.90
20560;DHT22;10438;51.454;6.718;2023-07-13T14:05:10;24.00;99.90
20560;DHT22;10438;51.454;6.718;2023-07-13T14:07:37;24.30;99.90
20560;DHT22;10438;51.454;6.718;2023-07-13T14:10:13;24.10;99.90
20560;DHT22;10438;51.454;6.718;2023-07-13T14:12:44;23.70;99.90
20560;DHT22;10438;51.454;6.718;2023-07-13T14:15:36;23.40;99.90
20560;DHT22;10438;51.454;6.718;2023-07-13T14:18:01;23.00;99.90
20560;DHT22;10438;51.454;6.718;2023-07-13T14:20:27;22.80;99.90
20560;DHT22;10438;51.454;6.718;2023-07-13T14:22:53;22.90;99.90
20560;DHT22;10438;51.454;6.718;2023-07-13T14:25:21;22.90;99.90
20560;DHT22;10438;51.454;6.718;2023-07-13T14:27:49;23.20;99.90
20560;DHT22;10438;51.454;6.718;2023-07-13T14:30:20;23.70;99.90
20560;DHT22;10438;51.454;6.718;2023-07-13T14:32:46;24.30;99.90
20560;DHT22;10438;51.454;6.718;2023-07-13T14:35:17;24.40;99.90
20560;DHT22;10438;51.454;6.718;2023-07-13T14:37:43;24.60;99.90
20560;DHT22;10438;51.454;6.718;2023-07-13T14:40:14;24.40;99.90
20560;DHT22;10438;51.454;6.718;2023-07-13T14:42:39;24.10;99.90
20560;DHT22;10438;51.454;6.718;2023-07-13T14:45:05;23.80;99.90
20560;DHT22;10438;51.454;6.718;2023-07-13T14:47:31;23.60;99.90
20560;DHT22;10438;51.454;6.718;2023-07-13T14:49:57;23.30;99.90
20560;DHT22;10438;51.454;6.718;2023-07-13T14:52:23;23.10;99.90
20560;DHT22;10438;51.454;6.718;2023-07-13T14:54:50;22.90;99.90
20560;DHT22;10438;51.454;6.718;2023-07-13T14:57:18;22.70;99.90
20560;DHT22;10438;51.454;6.718;2023-07-13T14:59:47;22.50;99.90
20560;DHT22;10438;51.454;6.718;2023-07-13T15:02:30;22.30;99.90
20560;DHT22;10438;51.454;6.718;2023-07-13T15:04:57;22.20;99.90
20560;DHT22;10438;51.454;6.718;2023-07-13T15:07:23;22.00;99.90
20560;DHT22;10438;51.454;6.718;2023-07-13T15:09:50;21.80;99.90
20560;DHT22;10438;51.454;6.718;2023-07-13T15:12:16;21.10;99.90
20560;DHT22;10438;51.454;6.718;2023-07-13T15:14:42;20.00;99.90
20560;DHT22;10438;51.454;6.718;2023-07-13T15:19:49;18.50;99.90
20560;DHT22;10438;51.454;6.718;2023-07-13T15:22:15;18.10;99.90
20560;DHT22;10438;51.454;6.718;2023-07-13T15:24:40;17.80;99.90
20560;DHT22;10438;51.454;6.718;2023-07-13T15:27:11;17.70;99.90
20560;DHT22;10438;51.454;6.718;2023-07-13T15:29:37;17.60;99.90
20560;DHT22;10438;51.454;6.718;2023-07-13T15:32:03;17.60;99.90
20560;DHT22;10438;51.454;6.718;2023-07-13T15:34:28;17.50;99.90
20560;DHT22;10438;51.454;6.718;2023-07-13T15:36:54;17.50;99.90
20560;DHT22;10438;51.454;6.718;2023-07-13T15:39:20;17.30;99.90
20560;DHT22;10438;51.454;6.718;2023-07-13T15:41:46;17.20;99.90
20560;DHT22;10438;51.454;6.718;2023-07-13T15:44:28;17.20;99.90
20560;DHT22;10438;51.454;6.718;2023-07-13T15:46:54;17.20;99.90
20560;DHT22;10438;51.454;6.718;2023-07-13T15:49:20;17.30;99.90
20560;DHT22;10438;51.454;6.718;2023-07-13T15:51:47;17.30;99.90
20560;DHT22;10438;51.454;6.718;2023-07-13T15:54:15;17.40;99.90
20560;DHT22;10438;51.454;6.718;2023-07-13T15:56:41;17.50;99.90
20560;DHT22;10438;51.454;6.718;2023-07-13T15:59:10;17.50;99.90
20560;DHT22;10438;51.454;6.718;2023-07-13T16:01:38;17.60;99.90
20560;DHT22;10438;51.454;6.718;2023-07-13T16:04:04;17.80;99.90
20560;DHT22;10438;51.454;6.718;2023-07-13T16:06:36;17.80;99.90
20560;DHT22;10438;51.454;6.718;2023-07-13T16:09:03;17.90;99.90
20560;DHT22;10438;51.454;6.718;2023-07-13T16:11:36;18.00;99.90